Time;durP1;ratioP1;P1;durP2;ratioP2;P2;SDS_P1;SDS_P2;PMS_P1;PMS_P2;Temp;Humidity;BMP_temperature;BMP_pressure;BME280_temperature;BME280_humidity;BME280_pressure;Samples;Min_cycle;Max_cycle;Signal;HPM_P1;HPM_P2
2022/03/29 00:00:23;;;;;;;117.75;57.10;;;;;;;22.07;100.00;97882.44;4929102;29;20053;-65
2022/03/29 00:03:13;;;;;;;135.68;61.35;;;;;;;21.98;100.00;97895.53;4928000;29;20048;-65
2022/03/29 00:06:08;;;;;;;117.65;60.85;;;;;;;22.03;100.00;97904.66;4928553;29;20062;-65
2022/03/29 00:08:44;;;;;;;128.32;63.38;;;;;;;22.02;100.00;97929.25;4927427;29;20468;-65
2022/03/29 00:11:33;;;;;;;132.95;65.25;;;;;;;21.93;100.00;97923.97;4928969;29;20055;-65
2022/03/29 00:14:15;;;;;;;123.45;60.83;;;;;;;22.01;100.00;97911.03;4908162;29;20065;-65
2022/03/29 00:17:04;;;;;;;108.53;57.85;;;;;;;21.96;100.00;97906.13;4908576;29;20090;-65
2022/03/29 00:19:46;;;;;;;117.30;59.55;;;;;;;21.89;100.00;97912.91;4924327;29;20058;-65
2022/03/29 00:22:41;;;;;;;108.25;60.10;;;;;;;22.04;100.00;97931.72;4925657;28;20047;-65
2022/03/29 00:25:31;;;;;;;129.93;64.35;;;;;;;21.92;100.00;97930.16;4926699;29;20071;-66
2022/03/29 00:28:20;;;;;;;124.25;59.95;;;;;;;22.08;100.00;97918.22;4927300;29;20259;-66
2022/03/29 00:31:02;;;;;;;116.05;58.42;;;;;;;22.09;100.00;97933.00;4913801;29;20063;-65
2022/03/29 00:33:52;;;;;;;114.32;55.75;;;;;;;22.08;100.00;97943.63;4906296;29;20060;-66
2022/03/29 00:36:34;;;;;;;106.97;56.37;;;;;;;22.09;100.00;97940.88;4909457;29;20060;-66
2022/03/29 00:39:23;;;;;;;106.35;54.03;;;;;;;22.10;100.00;97936.44;4908625;29;20749;-65
2022/03/29 00:42:05;;;;;;;101.68;53.28;;;;;;;22.09;100.00;97938.25;4898379;29;20119;-66
2022/03/29 00:44:56;;;;;;;94.22;51.45;;;;;;;22.11;100.00;97943.31;4906394;29;20052;-65
2022/03/29 00:47:37;;;;;;;104.32;52.42;;;;;;;22.15;100.00;97944.72;4907305;29;20052;-65
2022/03/29 00:50:26;;;;;;;106.88;49.63;;;;;;;22.16;100.00;97945.56;4908315;29;20056;-66
2022/03/29 00:53:10;;;;;;;89.45;49.13;;;;;;;22.12;100.00;97945.00;4908872;29;20054;-66
2022/03/29 00:55:59;;;;;;;99.82;50.40;;;;;;;22.08;100.00;97947.06;4909310;29;20052;-65
2022/03/29 00:58:41;;;;;;;93.45;51.08;;;;;;;22.00;100.00;97956.59;4912310;29;20068;-66
2022/03/29 01:01:30;;;;;;;95.82;46.28;;;;;;;21.94;100.00;97957.09;4911631;29;20048;-66
2022/03/29 01:04:12;;;;;;;96.47;47.70;;;;;;;21.82;100.00;97958.16;4906598;29;20115;-66
2022/03/29 01:07:03;;;;;;;88.65;46.25;;;;;;;21.83;100.00;97959.81;4911625;29;20552;-65
2022/03/29 01:09:46;;;;;;;89.45;46.92;;;;;;;21.85;100.00;97968.38;4926738;29;20107;-65
2022/03/29 01:12:39;;;;;;;106.25;46.28;;;;;;;22.00;100.00;97962.66;4929018;29;20052;-66
2022/03/29 01:15:24;;;;;;;75.13;45.70;;;;;;;22.09;100.00;97971.50;4910552;29;20063;-66
2022/03/29 01:18:14;;;;;;;79.10;44.13;;;;;;;22.08;100.00;97969.84;4907541;29;20599;-66
2022/03/29 01:20:59;;;;;;;92.70;44.83;;;;;;;22.22;100.00;97966.84;4901482;29;20059;-66
2022/03/29 01:23:55;;;;;;;85.30;42.95;;;;;;;22.28;100.00;97976.78;4892416;28;20128;-65
2022/03/29 01:26:43;;;;;;;76.07;41.92;;;;;;;22.39;100.00;97978.44;4908037;29;20539;-66
2022/03/29 01:29:36;;;;;;;82.75;43.80;;;;;;;22.28;100.00;97979.41;4910902;29;20168;-66
2022/03/29 01:32:18;;;;;;;78.43;42.40;;;;;;;22.26;100.00;97978.72;4911509;29;20143;-65
2022/03/29 01:35:08;;;;;;;74.75;43.28;;;;;;;22.24;100.00;97979.81;4911179;29;20066;-66
2022/03/29 01:37:53;;;;;;;79.57;42.17;;;;;;;22.23;100.00;97989.47;4908873;29;20385;-65
2022/03/29 01:40:42;;;;;;;68.38;40.92;;;;;;;22.32;100.00;97977.34;4908149;29;20135;-66
2022/03/29 01:43:24;;;;;;;77.75;40.53;;;;;;;22.45;100.00;97983.97;4910395;29;20107;-66
2022/03/29 01:46:12;;;;;;;81.63;42.90;;;;;;;22.67;100.00;97992.56;4910711;29;20468;-66
2022/03/29 01:48:54;;;;;;;77.75;41.28;;;;;;;22.92;100.00;97996.44;4910900;29;20063;-66
2022/03/29 01:51:43;;;;;;;67.65;40.78;;;;;;;23.08;100.00;97992.25;4911205;29;20452;-66
2022/03/29 01:54:25;;;;;;;73.15;41.83;;;;;;;23.34;100.00;98002.16;4893533;29;20062;-66
2022/03/29 01:57:14;;;;;;;77.85;42.58;;;;;;;23.44;100.00;98005.59;4909671;29;20539;-66
2022/03/29 02:00:42;;;;;;;74.30;41.73;;;;;;;23.60;100.00;98001.44;4910446;29;20677;-66
2022/03/29 02:03:09;;;;;;;85.47;42.58;;;;;;;23.87;100.00;98005.88;4909235;29;20051;-66
2022/03/29 02:05:51;;;;;;;90.65;43.10;;;;;;;24.03;100.00;98013.94;4908047;29;20052;-66
2022/03/29 02:08:39;;;;;;;79.90;40.83;;;;;;;24.24;100.00;98008.47;4908965;29;20037;-66
2022/03/29 02:11:23;;;;;;;98.47;42.97;;;;;;;24.60;100.00;98019.84;4908446;29;20111;-66
2022/03/29 02:14:12;;;;;;;94.05;41.30;;;;;;;24.62;100.00;98017.91;4908390;29;20048;-66
2022/03/29 02:16:56;;;;;;;87.38;40.47;;;;;;;24.82;100.00;98017.75;4911868;29;20808;-66
2022/03/29 02:19:45;;;;;;;89.15;39.05;;;;;;;24.62;93.27;98023.19;4908200;29;20285;-66
2022/03/29 02:22:42;;;;;;;86.80;38.60;;;;;;;24.88;100.00;98033.78;4909886;28;20131;-66
2022/03/29 02:25:37;;;;;;;77.35;36.78;;;;;;;25.06;98.17;98026.69;4929789;29;21071;-66
2022/03/29 02:28:13;;;;;;;81.95;37.13;;;;;;;25.12;89.74;98035.84;4928256;29;20428;-66
2022/03/29 02:31:01;;;;;;;72.93;35.80;;;;;;;25.30;84.49;98033.16;4929091;29;20523;-66
2022/03/29 02:33:44;;;;;;;;;;;;;;;25.53;88.04;98035.13;4929083;29;20048;-65
2022/03/29 02:36:41;;;;;;;65.80;29.90;;;;;;;25.52;77.86;98044.03;4939317;29;20302;-66
2022/03/29 02:39:17;;;;;;;79.68;33.40;;;;;;;25.50;78.40;98043.34;4947317;29;20055;-66
2022/03/29 02:42:14;;;;;;;80.13;30.80;;;;;;;25.74;81.18;98044.50;4948584;29;20125;-66
2022/03/29 02:44:50;;;;;;;60.50;28.30;;;;;;;25.68;74.50;98047.78;4931125;29;20063;-66
2022/03/29 02:47:39;;;;;;;62.73;26.70;;;;;;;25.91;79.37;98051.53;4927469;29;20052;-66
2022/03/29 02:50:29;;;;;;;66.50;27.63;;;;;;;25.71;78.14;98058.00;4909019;29;20067;-66
2022/03/29 02:53:11;;;;;;;;;;;;;;;25.82;73.47;98066.50;4911836;29;20087;-65
2022/03/29 02:56:00;;;;;;;67.22;26.45;;;;;;;25.90;71.84;98061.25;4928294;29;20124;-66
2022/03/29 02:58:42;;;;;;;51.38;25.52;;;;;;;26.13;73.65;98069.44;4928851;29;20056;-66
2022/03/29 03:01:32;;;;;;;61.25;28.35;;;;;;;26.21;74.01;98073.91;4928956;29;20121;-66
2022/03/29 03:04:14;;;;;;;51.03;25.25;;;;;;;26.39;79.12;98079.13;4911547;29;20598;-66
2022/03/29 03:07:03;;;;;;;49.75;25.90;;;;;;;26.48;79.07;98083.47;4925924;29;20062;-66
2022/03/29 03:09:52;;;;;;;57.42;26.00;;;;;;;26.46;79.30;98077.50;4926764;29;20055;-66
2022/03/29 03:12:48;;;;;;;74.47;28.88;;;;;;;26.49;70.93;98071.91;4925812;29;20130;-66
2022/03/29 03:15:37;;;;;;;66.25;28.85;;;;;;;26.53;69.13;98073.22;4928180;29;20051;-66
2022/03/29 03:18:26;;;;;;;49.05;26.50;;;;;;;26.75;75.01;98077.91;4927568;29;20086;-66
2022/03/29 03:21:15;;;;;;;59.92;28.63;;;;;;;26.89;70.51;98082.56;4927403;29;20067;-66
2022/03/29 03:24:13;;;;;;;54.05;27.45;;;;;;;27.06;74.35;98083.41;4929068;28;20098;-66
2022/03/29 03:27:02;;;;;;;49.42;24.00;;;;;;;27.11;67.55;98086.41;4914425;29;20074;-67
2022/03/29 03:29:51;;;;;;;61.90;24.00;;;;;;;27.18;68.78;98091.88;4912794;29;20554;-66
2022/03/29 03:32:33;;;;;;;55.55;23.30;;;;;;;27.25;69.20;98091.03;4928478;29;20051;-66
2022/03/29 03:35:22;;;;;;;48.88;22.40;;;;;;;27.52;77.22;98096.97;4922417;29;20436;-66
2022/03/29 03:38:05;;;;;;;45.15;22.15;;;;;;;27.57;67.67;98100.81;4927910;29;20522;-66
2022/03/29 03:40:54;;;;;;;70.28;22.73;;;;;;;27.64;63.66;98099.13;4928105;29;20084;-66
2022/03/29 03:43:36;;;;;;;51.42;21.08;;;;;;;27.86;64.76;98107.38;4912100;29;20062;-66
2022/03/29 03:46:25;;;;;;;49.97;19.73;;;;;;;27.97;63.70;98112.31;4924233;29;20044;-66
2022/03/29 03:49:07;;;;;;;39.22;18.48;;;;;;;28.09;63.08;98116.25;4926523;29;20043;-66
2022/03/29 03:51:56;;;;;;;44.13;17.48;;;;;;;28.21;62.52;98117.56;4925868;29;20059;-66
2022/03/29 03:54:38;;;;;;;45.10;18.23;;;;;;;28.31;61.92;98122.66;4932906;29;20055;-67
2022/03/29 03:57:27;;;;;;;49.63;18.25;;;;;;;28.48;61.70;98125.09;4926627;29;20051;-66
2022/03/29 04:00:17;;;;;;;45.28;17.60;;;;;;;28.76;61.71;98120.16;4919715;29;20064;-67
2022/03/29 04:02:59;;;;;;;51.28;17.80;;;;;;;29.01;62.85;98128.78;4922217;29;20056;-66
2022/03/29 04:05:48;;;;;;;46.17;18.73;;;;;;;29.21;59.50;98127.31;4925143;29;20381;-67
2022/03/29 04:08:37;;;;;;;48.38;18.50;;;;;;;29.57;59.67;98127.53;4927749;29;20089;-67
2022/03/29 04:11:34;;;;;;;61.17;20.27;;;;;;;29.87;55.03;98138.22;4924147;29;20062;-67
2022/03/29 04:14:19;;;;;;;52.97;18.80;;;;;;;30.21;53.65;98130.56;4908342;29;20297;-67
2022/03/29 04:17:10;;;;;;;58.28;19.65;;;;;;;30.37;58.93;98134.88;4925184;29;20107;-66
2022/03/29 04:19:52;;;;;;;51.38;19.23;;;;;;;30.47;53.44;98137.25;4926618;29;20167;-67
2022/03/29 04:22:41;;;;;;;46.08;19.35;;;;;;;30.77;52.73;98141.53;4924697;28;20064;-67
2022/03/29 04:25:30;;;;;;;45.97;18.05;;;;;;;30.93;49.56;98137.81;4900189;29;20380;-67
2022/03/29 04:28:19;;;;;;;47.05;18.63;;;;;;;31.52;52.11;98141.94;4905872;29;20059;-67
2022/03/29 04:31:01;;;;;;;37.40;17.48;;;;;;;31.87;52.23;98139.34;4903267;29;20056;-66
2022/03/29 04:33:59;;;;;;;41.95;16.38;;;;;;;32.20;54.74;98132.41;4912369;29;20056;-66
2022/03/29 04:36:34;;;;;;;39.72;17.92;;;;;;;32.08;47.89;98139.28;4905037;29;20052;-66
2022/03/29 04:39:23;;;;;;;41.25;17.88;;;;;;;32.47;48.56;98145.88;4897206;29;20045;-66
2022/03/29 04:42:05;;;;;;;41.15;17.23;;;;;;;32.64;47.22;98147.19;4889294;29;20059;-67
2022/03/29 04:44:54;;;;;;;52.60;17.33;;;;;;;32.92;46.29;98145.25;4909046;29;20058;-68
2022/03/29 04:47:43;;;;;;;44.30;17.35;;;;;;;33.36;48.28;98147.44;4910380;29;20420;-67
2022/03/29 04:50:25;;;;;;;40.33;15.05;;;;;;;33.51;46.02;98141.91;4911887;29;20043;-68
2022/03/29 04:53:14;;;;;;;43.10;14.57;;;;;;;33.80;47.52;98143.34;4915158;29;20107;-69
2022/03/29 04:56:10;;;;;;;36.92;13.70;;;;;;;33.37;48.43;98146.38;4911657;29;20059;-67
2022/03/29 04:58:49;;;;;;;33.10;11.68;;;;;;;33.58;44.65;98148.06;4913673;29;20056;-67
2022/03/29 05:01:39;;;;;;;35.17;13.27;;;;;;;34.30;46.83;98155.22;4903604;29;20044;-68
2022/03/29 05:04:28;;;;;;;46.58;13.18;;;;;;;34.05;44.91;98159.56;4892568;29;20060;-68
2022/03/29 05:07:10;;;;;;;44.95;15.13;;;;;;;33.93;41.01;98163.88;4909627;29;20052;-68
2022/03/29 05:09:59;;;;;;;52.53;16.17;;;;;;;34.22;47.76;98152.75;4908916;29;20067;-67
2022/03/29 05:12:55;;;;;;;38.70;13.45;;;;;;;34.87;49.71;98150.94;4904247;29;20059;-66
2022/03/29 05:15:44;;;;;;;43.45;15.60;;;;;;;35.05;46.57;98160.91;4902189;29;20139;-66
2022/03/29 05:18:33;;;;;;;54.70;17.10;;;;;;;34.04;40.88;98157.91;4881365;29;20057;-67
2022/03/29 05:21:15;;;;;;;47.53;14.68;;;;;;;34.39;39.75;98159.31;4889950;29;20063;-66
2022/03/29 05:24:11;;;;;;;46.20;14.05;;;;;;;35.07;40.31;98161.50;4910697;29;20053;-66
2022/03/29 05:26:47;;;;;;;43.80;14.55;;;;;;;34.94;41.98;98162.41;4907731;29;20056;-66
2022/03/29 05:29:36;;;;;;;50.15;16.13;;;;;;;35.47;39.54;98164.78;4887314;29;20484;-66
2022/03/29 05:32:18;;;;;;;43.67;16.20;;;;;;;34.99;41.10;98165.25;4907319;29;20527;-66
2022/03/29 05:35:09;;;;;;;51.92;15.25;;;;;;;34.90;42.35;98161.19;4893270;29;20079;-67
2022/03/29 05:37:51;;;;;;;47.05;14.23;;;;;;;35.11;43.77;98157.38;4877793;29;20060;-64
2022/03/29 05:40:46;;;;;;;45.42;14.38;;;;;;;35.01;41.16;98162.38;4908748;29;20148;-65
2022/03/29 05:43:21;;;;;;;40.30;12.85;;;;;;;34.88;41.55;98168.63;4903816;29;20506;-66
2022/03/29 05:49:10;;;;;;;41.55;11.85;;;;;;;35.02;38.30;98162.16;4897257;29;20053;-64
2022/03/29 05:51:59;;;;;;;37.80;12.20;;;;;;;35.41;41.93;98157.63;4903382;29;20063;-64
2022/03/29 05:54:45;;;;;;;52.03;12.25;;;;;;;35.59;42.75;98155.00;4894876;29;20056;-65
2022/03/29 05:57:39;;;;;;;45.30;10.93;;;;;;;35.36;37.72;98154.78;4904900;29;20048;-66
2022/03/29 06:00:16;;;;;;;38.08;11.77;;;;;;;35.68;41.40;98151.00;4909835;29;20139;-65
2022/03/29 06:03:05;;;;;;;40.63;10.60;;;;;;;35.87;34.86;98150.03;4901321;29;20731;-66
2022/03/29 06:05:54;;;;;;;38.05;10.70;;;;;;;35.37;34.52;98151.84;4909016;29;20051;-65
2022/03/29 06:08:36;;;;;;;40.75;12.95;;;;;;;35.76;35.23;98145.38;4902401;29;20052;-64
2022/03/29 06:11:25;;;;;;;35.17;10.85;;;;;;;35.87;38.95;98142.00;4905505;29;20541;-65
2022/03/29 06:14:07;;;;;;;46.40;13.45;;;;;;;35.71;37.88;98142.56;4910405;29;20058;-65
2022/03/29 06:16:56;;;;;;;35.03;11.57;;;;;;;35.74;37.20;98139.44;4910334;29;20048;-66
2022/03/29 06:19:38;;;;;;;35.63;12.07;;;;;;;36.05;42.39;98131.31;4908487;29;20058;-66
2022/03/29 06:22:27;;;;;;;39.40;12.93;;;;;;;35.76;37.68;98123.94;4903864;29;20120;-66
2022/03/29 06:25:09;;;;;;;35.50;11.82;;;;;;;35.51;35.66;98131.16;4927988;29;20054;-66
2022/03/29 06:27:58;;;;;;;31.48;9.55;;;;;;;35.41;32.64;98137.00;4914716;29;20267;-65
2022/03/29 06:30:48;;;;;;;28.50;9.60;;;;;;;35.84;36.27;98126.34;4926363;29;20055;-66
2022/03/29 06:33:30;;;;;;;39.25;10.88;;;;;;;35.56;33.57;98123.28;4897631;29;20048;-67
2022/03/29 06:36:19;;;;;;;43.03;11.80;;;;;;;35.81;31.88;98128.66;4921534;29;20051;-67
2022/03/29 06:39:01;;;;;;;37.90;11.18;;;;;;;35.50;34.26;98122.28;4920725;29;20123;-66
2022/03/29 06:41:51;;;;;;;42.20;11.73;;;;;;;35.25;30.99;98116.91;4928080;29;20812;-65
2022/03/29 06:44:39;;;;;;;44.58;12.23;;;;;;;35.39;34.33;98112.28;4928937;29;20503;-65
2022/03/29 06:47:35;;;;;;;34.17;12.77;;;;;;;35.84;37.29;98099.53;4928437;29;20055;-67
2022/03/29 06:50:11;;;;;;;44.08;11.48;;;;;;;35.65;32.67;98101.34;4926948;29;20412;-64
2022/03/29 06:53:00;;;;;;;45.78;12.05;;;;;;;35.92;40.60;98101.13;4915577;29;20320;-65
2022/03/29 06:55:42;;;;;;;30.48;11.15;;;;;;;35.91;39.87;98104.84;4928723;29;20312;-65
2022/03/29 06:58:31;;;;;;;41.22;12.88;;;;;;;36.03;38.26;98101.19;4926541;29;20051;-66
2022/03/29 07:01:13;;;;;;;44.58;12.57;;;;;;;35.79;37.19;98096.69;4924876;29;20059;-65
2022/03/29 07:04:03;;;;;;;35.33;11.63;;;;;;;35.78;34.48;98094.22;4925224;29;20047;-65
2022/03/29 07:06:45;;;;;;;40.22;11.60;;;;;;;35.63;36.02;98091.88;4925315;29;20074;-65
2022/03/29 07:12:57;;;;;;;39.83;11.98;;;;;;;35.90;31.54;98085.25;4924912;29;20204;-66
2022/03/29 07:15:39;;;;;;;34.70;10.30;;;;;;;36.07;30.94;98082.81;4927181;29;20048;-66
2022/03/29 07:18:28;;;;;;;30.25;10.98;;;;;;;36.10;28.49;98081.50;4925163;29;22605;-66
2022/03/29 07:21:10;;;;;;;38.90;11.88;;;;;;;36.02;31.58;98070.03;4924778;29;20047;-65
2022/03/29 07:23:59;;;;;;;32.15;12.32;;;;;;;35.98;32.60;98068.88;4924063;29;20056;-67
2022/03/29 07:26:54;;;;;;;37.67;12.80;;;;;;;35.98;32.58;98063.50;4925950;29;20150;-67
2022/03/29 07:29:29;;;;;;;39.53;13.07;;;;;;;36.08;32.61;98062.16;4926294;29;20524;-66
2022/03/29 07:32:18;;;;;;;47.47;12.50;;;;;;;36.13;33.07;98060.44;4926313;29;20057;-67
2022/03/29 07:35:00;;;;;;;42.08;15.77;;;;;;;36.02;34.48;98047.75;4916919;29;20058;-66
2022/03/29 07:37:50;;;;;;;38.28;15.98;;;;;;;35.86;32.43;98053.72;4928111;29;20047;-67
2022/03/29 07:40:34;;;;;;;42.78;15.13;;;;;;;35.78;35.96;98043.28;4927367;29;20061;-66
2022/03/29 07:43:23;;;;;;;50.17;16.75;;;;;;;35.66;31.85;98048.53;4926018;29;20078;-67
2022/03/29 07:46:13;;;;;;;39.17;16.42;;;;;;;35.74;34.09;98034.88;4926671;29;20665;-67
2022/03/29 07:48:55;;;;;;;42.35;17.80;;;;;;;35.76;34.71;98034.66;4927752;29;20056;-66
2022/03/29 07:52:04;;;;;;;56.53;19.05;;;;;;;35.72;36.59;98033.44;4927465;29;20483;-67
2022/03/29 07:54:46;;;;;;;50.90;20.73;;;;;;;35.72;37.17;98030.78;4926088;29;20459;-66
2022/03/29 07:57:35;;;;;;;56.40;21.90;;;;;;;35.63;34.72;98033.72;4924972;29;20376;-67
2022/03/29 08:00:32;;;;;;;53.60;22.98;;;;;;;35.57;34.11;98025.75;4910186;29;20055;-67
2022/03/29 08:03:21;;;;;;;58.63;19.40;;;;;;;35.58;34.15;98024.69;4926000;29;20048;-67
2022/03/29 08:06:05;;;;;;;;;;;;;;;35.60;34.45;98028.00;4926723;29;20039;-64
2022/03/29 08:08:53;;;;;;;48.88;15.55;;;;;;;35.64;32.06;98015.75;4926799;29;19927;-66
2022/03/29 08:11:42;;;;;;;41.97;13.50;;;;;;;35.61;29.61;98027.75;4927046;29;20040;-66
2022/03/29 08:14:25;;;;;;;33.42;11.15;;;;;;;35.64;26.08;98010.41;4926489;29;20052;-67
2022/03/29 08:17:20;;;;;;;31.02;11.05;;;;;;;35.76;29.10;98010.53;4922310;29;20051;-67
2022/03/29 08:19:55;;;;;;;28.65;9.88;;;;;;;35.68;28.87;98000.84;4926439;29;20499;-66
2022/03/29 08:22:50;;;;;;;48.55;13.27;;;;;;;35.67;27.60;98001.94;4926231;29;20051;-67
2022/03/29 08:25:34;;;;;;;38.70;13.02;;;;;;;35.61;29.07;98008.97;4927213;29;20154;-66
2022/03/29 08:28:23;;;;;;;39.95;11.98;;;;;;;35.66;28.78;98000.28;4926556;29;20602;-65
2022/03/29 08:31:13;;;;;;;47.78;12.20;;;;;;;35.64;29.62;97997.00;4925262;29;20345;-65
2022/03/29 08:34:02;;;;;;;27.88;10.65;;;;;;;35.63;29.70;97990.81;4921599;29;20048;-66
2022/03/29 08:36:44;;;;;;;41.05;10.93;;;;;;;35.56;28.97;97986.56;4925530;29;20404;-65
2022/03/29 08:39:33;;;;;;;31.45;11.52;;;;;;;35.51;27.94;97989.94;4925874;29;20360;-65
2022/03/29 08:42:18;;;;;;;44.45;10.90;;;;;;;35.31;33.57;97973.22;4925473;29;20567;-64
2022/03/29 08:45:12;;;;;;;27.08;10.93;;;;;;;34.87;35.71;97968.84;4924578;29;20055;-66
2022/03/29 08:47:56;;;;;;;38.28;11.63;;;;;;;34.95;29.55;97959.72;4927692;29;20665;-67
2022/03/29 08:50:46;;;;;;;35.42;13.30;;;;;;;34.96;29.79;97962.19;4927047;29;20040;-67
2022/03/29 08:53:29;;;;;;;41.90;14.98;;;;;;;35.06;29.78;97961.66;4926550;29;20103;-67
2022/03/29 08:56:18;;;;;;;44.95;13.10;;;;;;;35.03;30.04;97954.09;4925548;29;20055;-66
2022/03/29 08:59:01;;;;;;;39.80;13.20;;;;;;;35.05;27.34;97952.00;4923847;29;20113;-66
2022/03/29 09:01:50;;;;;;;47.95;14.68;;;;;;;35.06;29.36;97941.06;4925710;29;20061;-66
2022/03/29 09:04:32;;;;;;;41.63;13.80;;;;;;;35.04;28.88;97948.50;4925800;29;20083;-65
2022/03/29 09:07:21;;;;;;;40.83;12.85;;;;;;;35.01;28.10;97940.09;4926797;29;20115;-64
2022/03/29 09:10:04;;;;;;;35.17;12.88;;;;;;;34.98;29.36;97938.66;4926997;29;20054;-66
2022/03/29 09:12:55;;;;;;;41.20;15.32;;;;;;;34.95;31.17;97932.94;4924865;29;20059;-65
2022/03/29 09:15:38;;;;;;;40.47;14.02;;;;;;;34.81;32.67;97933.03;4911845;29;20380;-65
2022/03/29 09:18:28;;;;;;;32.67;13.40;;;;;;;34.65;31.55;97928.19;4929319;29;20071;-64
2022/03/29 09:21:15;;;;;;;39.92;14.95;;;;;;;34.51;33.90;97915.97;4928192;29;20055;-66
2022/03/29 09:24:12;;;;;;;41.72;17.00;;;;;;;34.35;31.48;97911.94;4928049;29;20079;-66
2022/03/29 09:26:52;;;;;;;42.40;15.13;;;;;;;34.34;30.66;97921.00;4928592;29;20613;-66
2022/03/29 09:29:40;;;;;;;46.30;16.67;;;;;;;34.28;33.02;97899.66;4905506;29;20051;-67
2022/03/29 09:32:29;;;;;;;46.03;17.63;;;;;;;34.27;35.07;97898.84;4928444;29;20047;-66
2022/03/29 09:35:24;;;;;;;43.20;16.73;;;;;;;34.30;33.10;97895.75;4929138;29;20077;-68
2022/03/29 09:38:01;;;;;;;52.30;17.52;;;;;;;34.20;35.57;97881.97;4909700;29;20130;-67
2022/03/29 09:40:50;;;;;;;51.90;18.42;;;;;;;34.10;35.66;97886.97;4927749;29;20433;-66
2022/03/29 09:43:50;;;;;;;42.35;19.95;;;;;;;34.00;37.06;97881.31;4928650;29;20611;-66
2022/03/29 09:47:08;;;;;;;59.63;20.00;;;;;;;34.01;34.69;97877.56;4911814;29;20066;-66
2022/03/29 09:50:02;;;;;;;57.53;20.15;;;;;;;33.96;35.38;97875.56;4929763;29;20493;-66
2022/03/29 09:52:58;;;;;;;46.08;17.73;;;;;;;33.89;36.98;97868.59;4927217;29;20064;-63
2022/03/29 09:55:33;;;;;;;39.17;17.70;;;;;;;33.87;37.48;97876.00;4928179;29;20118;-65
2022/03/29 09:58:30;;;;;;;45.05;18.98;;;;;;;34.00;32.10;97875.97;4930160;29;20051;-65
2022/03/29 10:01:20;;;;;;;42.63;16.50;;;;;;;33.94;35.03;97869.59;4926844;29;20571;-66
2022/03/29 10:04:16;;;;;;;47.72;17.52;;;;;;;33.90;33.88;97872.91;4927409;29;20495;-67
2022/03/29 10:06:55;;;;;;;46.00;15.52;;;;;;;34.00;33.00;97867.94;4902970;29;20658;-65
2022/03/29 10:09:45;;;;;;;52.28;15.65;;;;;;;34.13;33.05;97870.50;4928294;29;20055;-66
2022/03/29 10:12:29;;;;;;;43.78;14.65;;;;;;;34.16;34.82;97859.41;4928596;29;20750;-66
2022/03/29 10:15:40;;;;;;;51.25;16.42;;;;;;;34.03;35.83;97856.78;4926465;29;20044;-66
2022/03/29 10:18:24;;;;;;;46.78;14.35;;;;;;;33.95;36.30;97862.38;4929414;29;20161;-66
2022/03/29 10:21:16;;;;;;;59.08;15.68;;;;;;;33.89;33.98;97852.56;4930243;29;20059;-67
2022/03/29 10:23:59;;;;;;;54.60;16.20;;;;;;;33.85;34.53;97854.84;4916733;29;20162;-67
2022/03/29 10:26:57;;;;;;;41.35;12.73;;;;;;;33.72;34.67;97842.38;4926953;29;20479;-66
2022/03/29 10:29:32;;;;;;;42.60;13.82;;;;;;;33.66;34.26;97845.88;4928866;29;20067;-66
2022/03/29 10:32:31;;;;;;;39.67;13.93;;;;;;;33.63;34.60;97832.09;4911917;29;20142;-66
2022/03/29 10:35:16;;;;;;;37.40;13.73;;;;;;;33.57;35.90;97835.63;4929608;29;20054;-66
2022/03/29 10:38:11;;;;;;;37.80;13.80;;;;;;;33.53;36.40;97837.91;4922507;29;20051;-67
2022/03/29 10:40:46;;;;;;;42.58;13.55;;;;;;;33.44;34.37;97831.97;4921847;29;20119;-66
2022/03/29 10:43:35;;;;;;;41.42;13.45;;;;;;;33.48;31.68;97832.38;4911200;29;20060;-66
2022/03/29 10:46:30;;;;;;;47.30;15.13;;;;;;;33.43;32.77;97825.03;4911408;29;20131;-66
2022/03/29 10:49:28;;;;;;;40.75;15.02;;;;;;;33.41;34.31;97824.41;4913456;29;20141;-67
2022/03/29 10:52:06;;;;;;;57.88;16.38;;;;;;;33.40;31.78;97827.28;4926427;29;20052;-65
2022/03/29 10:55:15;;;;;;;48.85;13.68;;;;;;;33.41;31.03;97828.94;4924626;29;20067;-66
2022/03/29 10:58:12;;;;;;;36.10;12.45;;;;;;;33.41;32.50;97826.25;4926865;29;20052;-66
2022/03/29 11:01:20;;;;;;;40.70;13.45;;;;;;;33.34;32.92;97818.28;4927144;29;20044;-66
2022/03/29 11:04:04;;;;;;;35.45;14.10;;;;;;;33.34;32.47;97817.44;4926581;29;20565;-67
2022/03/29 11:07:05;;;;;;;44.00;14.25;;;;;;;33.29;33.38;97817.25;4913768;29;20138;-67
2022/03/29 11:09:54;;;;;;;39.90;13.82;;;;;;;33.26;33.86;97818.50;4928202;29;20051;-66
2022/03/29 11:12:56;;;;;;;46.47;13.35;;;;;;;33.16;34.02;97807.41;4925710;29;20134;-66
2022/03/29 11:15:46;;;;;;;42.30;12.05;;;;;;;33.06;33.49;97805.19;4922189;29;20634;-66
2022/03/29 11:18:31;;;;;;;43.63;13.70;;;;;;;33.03;32.89;97808.28;4928396;29;20063;-67
2022/03/29 11:21:38;;;;;;;40.42;14.98;;;;;;;32.99;33.68;97814.25;4926454;29;20055;-67
2022/03/29 11:24:27;;;;;;;56.65;19.17;;;;;;;32.95;34.25;97807.69;4904299;29;20084;-66
2022/03/29 11:27:27;;;;;;;56.47;19.58;;;;;;;32.95;36.16;97811.19;4903023;29;20048;-66
2022/03/29 11:30:14;;;;;;;46.65;21.10;;;;;;;32.86;37.67;97808.94;4907084;29;20393;-66
2022/03/29 11:33:12;;;;;;;53.25;19.83;;;;;;;32.76;37.16;97798.69;4907424;29;20843;-67
2022/03/29 11:35:52;;;;;;;51.38;21.13;;;;;;;32.67;38.21;97800.72;4906635;29;20053;-67
2022/03/29 11:38:41;;;;;;;63.88;23.58;;;;;;;32.64;36.47;97795.00;4907031;29;20087;-66
2022/03/29 11:41:37;;;;;;;56.63;23.35;;;;;;;32.58;36.74;97801.97;4907378;29;20500;-66
2022/03/29 11:44:27;;;;;;;69.37;23.10;;;;;;;32.46;38.63;97802.81;4908361;29;20063;-66
2022/03/29 11:47:08;;;;;;;57.95;25.65;;;;;;;32.41;39.75;97805.28;4906764;29;20287;-66
2022/03/29 11:49:57;;;;;;;57.55;24.35;;;;;;;32.43;38.63;97813.88;4908043;29;20055;-67
2022/03/29 11:52:45;;;;;;;60.28;23.50;;;;;;;32.36;39.61;97803.22;4906135;29;20083;-66
2022/03/29 11:55:34;;;;;;;61.95;22.65;;;;;;;32.25;39.28;97811.84;4906971;29;20063;-66
2022/03/29 11:58:37;;;;;;;47.35;20.42;;;;;;;32.20;38.16;97815.13;4908591;29;20048;-67
2022/03/29 12:01:31;;;;;;;47.55;19.77;;;;;;;32.16;41.09;97807.75;4901865;29;20051;-66
2022/03/29 12:04:20;;;;;;;49.92;18.73;;;;;;;32.09;39.50;97813.03;4905757;29;20063;-66
2022/03/29 12:07:09;;;;;;;45.80;20.15;;;;;;;31.99;40.60;97807.28;4907935;29;20072;-67
2022/03/29 12:09:58;;;;;;;48.75;18.05;;;;;;;31.91;39.93;97815.47;4891930;29;20075;-66
2022/03/29 12:12:40;;;;;;;50.55;18.02;;;;;;;31.77;41.03;97808.50;4906711;29;20160;-66
2022/03/29 12:15:29;;;;;;;57.28;18.75;;;;;;;31.72;40.61;97810.91;4906885;29;20671;-66
2022/03/29 12:18:45;;;;;;;55.38;18.40;;;;;;;31.66;40.65;97814.41;4905055;29;20051;-66
2022/03/29 12:21:34;;;;;;;52.53;17.67;;;;;;;31.59;42.66;97816.19;4891563;29;20570;-66
2022/03/29 12:24:17;;;;;;;48.47;15.55;;;;;;;31.48;41.43;97817.56;4909414;29;20048;-66
2022/03/29 12:27:10;;;;;;;56.45;19.27;;;;;;;31.45;40.41;97820.66;4909222;29;20108;-66
2022/03/29 12:29:56;;;;;;;42.15;15.90;;;;;;;31.38;37.80;97822.44;4908269;29;20444;-67
2022/03/29 12:32:46;;;;;;;48.40;18.00;;;;;;;31.27;40.16;97815.03;4894209;29;20492;-67
2022/03/29 12:35:30;;;;;;;43.22;17.15;;;;;;;31.16;41.12;97814.59;4905735;29;20140;-66
2022/03/29 12:38:19;;;;;;;51.78;17.27;;;;;;;31.05;42.54;97816.97;4908258;29;20140;-66
2022/03/29 12:41:01;;;;;;;50.55;16.90;;;;;;;30.93;40.25;97811.38;4892291;29;20059;-66
2022/03/29 12:44:00;;;;;;;51.75;16.55;;;;;;;30.84;41.50;97811.72;4908338;29;20075;-66
2022/03/29 12:46:55;;;;;;;42.85;16.13;;;;;;;30.72;44.45;97806.94;4906780;29;20677;-66
2022/03/29 12:49:32;;;;;;;41.83;16.45;;;;;;;30.61;45.16;97807.47;4906360;29;20115;-66
2022/03/29 12:52:21;;;;;;;46.50;17.13;;;;;;;30.46;44.39;97808.56;4911271;29;20052;-67
2022/03/29 12:55:10;;;;;;;42.65;16.75;;;;;;;30.37;44.17;97803.38;4911199;29;20052;-65
2022/03/29 12:58:02;;;;;;;42.97;16.98;;;;;;;30.36;48.13;97808.88;4912777;29;20052;-66